Time;durP1;ratioP1;P1;durP2;ratioP2;P2;SDS_P1;SDS_P2;PMS_P1;PMS_P2;Temp;Humidity;BMP_temperature;BMP_pressure;BME280_temperature;BME280_humidity;BME280_pressure;Samples;Min_cycle;Max_cycle;Signal;HPM_P1;HPM_P2
2023/10/27 00:02:17;;;;;;;2.25;1.00;;;;;;;-3.23;75.29;100372.47;10208762;29;20040;-85
2023/10/27 00:07:19;;;;;;;1.85;1.33;;;;;;;-3.28;75.62;100358.81;10211573;29;20059;-85
2023/10/27 00:12:22;;;;;;;1.80;1.10;;;;;;;-3.30;75.59;100356.31;10243710;29;20051;-85
2023/10/27 00:17:25;;;;;;;1.90;1.05;;;;;;;-3.27;75.72;100345.22;10225360;29;20047;-85
2023/10/27 00:22:28;;;;;;;1.08;0.98;;;;;;;-3.33;75.99;100349.50;10226843;29;20046;-86
2023/10/27 00:27:31;;;;;;;1.08;0.98;;;;;;;-3.31;75.69;100346.63;10242620;29;20047;-86
2023/10/27 00:32:36;;;;;;;1.33;1.08;;;;;;;-3.41;76.26;100338.94;10194758;29;20036;-85
2023/10/27 00:37:40;;;;;;;1.20;1.05;;;;;;;-3.38;76.11;100337.72;10196979;29;20047;-85
2023/10/27 00:42:43;;;;;;;1.45;1.05;;;;;;;-3.39;75.91;100334.19;10216482;29;20080;-86
2023/10/27 00:47:46;;;;;;;0.80;0.80;;;;;;;-3.43;75.99;100319.53;10215305;29;20078;-86
2023/10/27 00:52:50;;;;;;;1.98;1.00;;;;;;;-3.49;76.66;100301.53;10232222;29;20058;-87
2023/10/27 00:57:52;;;;;;;1.42;0.90;;;;;;;-3.47;76.82;100302.19;10231125;29;20040;-85
2023/10/27 01:02:54;;;;;;;1.52;1.00;;;;;;;-3.50;76.67;100302.56;10234817;29;20051;-86
2023/10/27 01:08:00;;;;;;;3.85;1.60;;;;;;;-3.46;77.00;100309.22;10249048;29;20042;-86
2023/10/27 01:13:02;;;;;;;1.95;0.70;;;;;;;-3.49;76.69;100293.47;10231630;29;20043;-85
2023/10/27 01:18:05;;;;;;;3.22;1.40;;;;;;;-3.54;76.80;100300.47;10229171;29;20537;-85
2023/10/27 01:23:07;;;;;;;2.50;1.20;;;;;;;-3.58;77.07;100289.31;10218006;29;20042;-85
2023/10/27 01:28:12;;;;;;;1.48;1.00;;;;;;;-3.63;76.91;100275.69;10233339;29;20127;-85
2023/10/27 01:33:14;;;;;;;3.08;1.42;;;;;;;-3.64;77.40;100268.69;10230203;29;20052;-85
2023/10/27 01:38:17;;;;;;;2.50;1.10;;;;;;;-3.62;77.78;100252.38;10232331;29;20430;-86
2023/10/27 01:43:19;;;;;;;0.75;0.70;;;;;;;-3.62;77.27;100269.31;10249026;29;20040;-85
2023/10/27 01:48:21;;;;;;;1.15;0.98;;;;;;;-3.68;77.68;100245.94;10213096;29;20051;-86
2023/10/27 01:53:23;;;;;;;2.33;1.10;;;;;;;-3.71;78.06;100240.97;10226897;29;20047;-86
2023/10/27 01:58:28;;;;;;;2.40;1.48;;;;;;;-3.65;77.88;100243.69;10214529;29;20103;-86
2023/10/27 02:03:30;;;;;;;2.03;1.10;;;;;;;-3.66;77.62;100235.84;10214883;29;20054;-86
2023/10/27 02:08:35;;;;;;;3.22;1.08;;;;;;;-3.65;77.80;100235.63;10229967;29;20047;-84
2023/10/27 02:13:37;;;;;;;1.58;0.93;;;;;;;-3.66;77.86;100219.75;10229610;29;20147;-85
2023/10/27 02:18:39;;;;;;;1.98;0.95;;;;;;;-3.68;78.16;100229.84;10213388;29;20433;-86
2023/10/27 02:23:42;;;;;;;2.65;1.08;;;;;;;-3.68;78.63;100219.13;10228613;29;20040;-84
2023/10/27 02:28:44;;;;;;;0.57;0.57;;;;;;;-3.70;78.54;100213.13;10227462;29;20055;-84
2023/10/27 02:33:47;;;;;;;2.75;1.10;;;;;;;-3.70;78.17;100215.81;10212312;29;20074;-85
2023/10/27 02:38:49;;;;;;;1.33;1.00;;;;;;;-3.70;78.16;100218.50;10227409;29;20051;-86
2023/10/27 02:43:51;;;;;;;1.52;0.88;;;;;;;-3.72;78.34;100199.13;10245832;29;20417;-85
2023/10/27 02:48:54;;;;;;;1.55;1.45;;;;;;;-3.79;78.57;100193.72;10228498;29;20048;-85
2023/10/27 02:53:56;;;;;;;1.25;0.80;;;;;;;-3.68;78.60;100203.03;10247468;29;20042;-85
2023/10/27 02:58:58;;;;;;;2.58;1.30;;;;;;;-3.81;78.54;100197.63;10228224;29;20050;-84
2023/10/27 03:04:01;;;;;;;2.00;1.20;;;;;;;-3.85;78.52;100201.72;10209311;29;20501;-85
2023/10/27 03:09:04;;;;;;;1.30;1.00;;;;;;;-3.81;78.91;100192.28;10210071;29;20051;-85
2023/10/27 03:14:06;;;;;;;1.83;1.10;;;;;;;-3.86;79.41;100187.50;10229472;29;20050;-84
2023/10/27 03:19:09;;;;;;;1.38;0.93;;;;;;;-3.82;78.91;100188.75;10227622;29;20414;-85
2023/10/27 03:24:11;;;;;;;2.13;1.15;;;;;;;-3.85;78.68;100181.09;10181800;29;20040;-85
2023/10/27 03:29:14;;;;;;;1.15;1.05;;;;;;;-3.86;79.12;100182.13;10231848;29;20044;-83
2023/10/27 03:34:17;;;;;;;1.20;0.95;;;;;;;-3.81;78.62;100176.19;10226126;29;20051;-86
2023/10/27 03:39:19;;;;;;;3.33;1.10;;;;;;;-3.82;78.84;100164.63;10240998;29;20047;-86
2023/10/27 03:44:21;;;;;;;1.70;0.90;;;;;;;-3.84;78.47;100171.22;10243825;29;20545;-87
2023/10/27 03:49:24;;;;;;;1.33;1.15;;;;;;;-3.89;78.59;100165.63;10207933;29;20506;-85
2023/10/27 03:54:27;;;;;;;2.08;1.88;;;;;;;-3.93;78.27;100157.16;10245944;29;20048;-85
2023/10/27 03:59:31;;;;;;;3.42;1.40;;;;;;;-3.94;78.35;100158.19;10237663;29;20070;-84
2023/10/27 04:04:35;;;;;;;1.92;1.33;;;;;;;-3.96;78.55;100153.03;10238576;29;20512;-86
2023/10/27 04:09:38;;;;;;;2.42;1.30;;;;;;;-4.00;78.55;100154.44;10198508;29;20047;-84
2023/10/27 04:14:40;;;;;;;3.47;1.40;;;;;;;-4.03;78.88;100146.78;10207806;29;20051;-86
2023/10/27 04:19:43;;;;;;;2.40;0.95;;;;;;;-4.06;79.04;100139.16;10233033;29;20071;-86
2023/10/27 04:24:45;;;;;;;1.92;1.40;;;;;;;-4.08;79.03;100137.69;10251215;29;20043;-85
2023/10/27 04:29:47;;;;;;;1.38;1.10;;;;;;;-4.11;79.08;100148.81;10215782;29;20044;-84
2023/10/27 04:34:51;;;;;;;1.95;1.02;;;;;;;-4.15;79.31;100126.13;10216918;29;20054;-84
2023/10/27 04:39:54;;;;;;;2.60;1.40;;;;;;;-4.19;79.72;100131.03;10255542;29;20406;-85
2023/10/27 04:44:57;;;;;;;3.85;1.42;;;;;;;-4.26;79.16;100136.38;10248693;29;20050;-85
2023/10/27 04:50:04;;;;;;;1.98;1.33;;;;;;;-4.25;79.79;100108.56;10233151;29;20043;-85
2023/10/27 04:55:08;;;;;;;1.58;1.33;;;;;;;-4.24;80.12;100109.38;10249855;29;20534;-86
2023/10/27 05:00:11;;;;;;;2.45;1.50;;;;;;;-4.28;80.01;100108.97;10220278;29;20520;-85
2023/10/27 05:05:14;;;;;;;2.22;1.30;;;;;;;-4.23;79.65;100112.88;10250777;29;20052;-88
2023/10/27 05:10:18;;;;;;;2.33;1.40;;;;;;;-4.27;79.95;100112.47;10236157;29;20052;-84
2023/10/27 05:15:21;;;;;;;2.10;1.15;;;;;;;-4.27;79.98;100104.44;10229938;29;20040;-86
2023/10/27 05:20:23;;;;;;;2.83;1.55;;;;;;;-4.25;79.81;100105.06;10229018;29;20047;-87
2023/10/27 05:25:26;;;;;;;2.78;1.73;;;;;;;-4.25;79.89;100102.38;10217022;29;20048;-86
2023/10/27 05:30:28;;;;;;;3.47;1.98;;;;;;;-4.27;79.82;100107.94;10228607;29;20035;-87
2023/10/27 05:35:32;;;;;;;5.18;1.70;;;;;;;-4.26;80.43;100103.41;10235171;29;20058;-86
2023/10/27 05:40:34;;;;;;;3.83;1.55;;;;;;;-4.21;79.94;100100.94;10227604;29;20047;-88
2023/10/27 05:45:37;;;;;;;3.53;1.98;;;;;;;-4.22;79.96;100115.38;10218189;29;20058;-86
2023/10/27 05:50:40;;;;;;;6.05;2.03;;;;;;;-4.24;80.31;100109.38;10249441;29;20044;-86
2023/10/27 05:55:43;;;;;;;5.38;1.80;;;;;;;-4.23;79.85;100113.72;10245249;29;20043;-85
2023/10/27 06:00:46;;;;;;;3.30;1.92;;;;;;;-4.15;80.28;100110.88;10231362;29;20350;-86
2023/10/27 06:05:51;;;;;;;2.35;1.63;;;;;;;-3.99;79.47;100110.56;10202138;29;20043;-86
2023/10/27 06:10:54;;;;;;;4.28;1.65;;;;;;;-3.81;79.07;100107.31;10250472;29;20399;-86
2023/10/27 06:15:56;;;;;;;2.45;1.60;;;;;;;-3.63;77.79;100098.72;10221034;29;20054;-86
2023/10/27 06:20:58;;;;;;;4.35;1.77;;;;;;;-3.83;78.45;100112.03;10217062;29;20045;-88
2023/10/27 06:26:02;;;;;;;5.13;1.90;;;;;;;-3.79;78.76;100104.44;10231736;29;20042;-86
2023/10/27 06:31:04;;;;;;;2.35;1.90;;;;;;;-3.27;78.19;100105.59;10235694;29;20038;-86
2023/10/27 06:36:07;;;;;;;6.82;2.28;;;;;;;-3.25;76.41;100098.19;10233335;29;20057;-86
2023/10/27 06:41:10;;;;;;;2.28;1.85;;;;;;;-2.74;75.38;100101.91;10234311;29;20118;-86
2023/10/27 06:46:15;;;;;;;3.35;2.17;;;;;;;-1.49;71.39;100086.41;10214869;29;20048;-88
2023/10/27 06:51:20;;;;;;;4.47;2.45;;;;;;;-0.05;66.41;100074.53;10218033;29;20425;-86
2023/10/27 06:56:23;;;;;;;2.50;1.90;;;;;;;-0.46;66.32;100075.22;10237456;29;20051;-87
2023/10/27 07:01:25;;;;;;;2.65;1.90;;;;;;;-0.46;65.28;100080.59;10255620;29;20053;-87
2023/10/27 07:06:27;;;;;;;6.00;2.40;;;;;;;-0.15;65.10;100085.06;10222838;29;20047;-87
2023/10/27 07:11:30;;;;;;;3.88;2.42;;;;;;;0.02;64.75;100069.09;10223211;29;20048;-88
2023/10/27 07:16:33;;;;;;;4.82;2.30;;;;;;;0.25;63.10;100064.63;10236564;29;20046;-87
2023/10/27 07:21:36;;;;;;;6.40;2.42;;;;;;;1.03;62.39;100052.88;10237079;29;20039;-87
2023/10/27 07:26:38;;;;;;;2.40;1.83;;;;;;;0.46;61.92;100044.41;10222376;29;20267;-88
2023/10/27 07:31:40;;;;;;;3.75;2.30;;;;;;;0.67;61.82;100047.63;10224926;29;20050;-88
2023/10/27 07:36:42;;;;;;;5.22;2.22;;;;;;;2.16;58.01;100045.38;10239219;29;20053;-88
2023/10/27 07:41:45;;;;;;;3.70;1.70;;;;;;;1.10;60.33;100041.97;10208105;29;20532;-87
2023/10/27 07:46:47;;;;;;;7.60;2.38;;;;;;;1.81;57.68;100047.09;10219737;29;20051;-88
2023/10/27 07:51:50;;;;;;;2.78;2.00;;;;;;;1.75;57.94;100031.00;10206289;29;20040;-88
2023/10/27 07:56:52;;;;;;;3.83;2.00;;;;;;;0.18;62.09;100041.50;10222584;29;20036;-88
2023/10/27 08:01:54;;;;;;;4.90;1.90;;;;;;;0.56;60.84;100042.00;10222942;29;20126;-88
2023/10/27 08:06:57;;;;;;;3.80;2.00;;;;;;;-0.36;64.00;100038.59;10209300;29;20056;-88
2023/10/27 08:12:00;;;;;;;3.00;2.00;;;;;;;-0.17;63.87;100046.72;10222174;29;20331;-88
2023/10/27 08:17:02;;;;;;;4.43;2.55;;;;;;;-1.09;66.09;100038.47;10202560;29;20070;-85
2023/10/27 08:22:05;;;;;;;3.20;2.28;;;;;;;-1.17;67.12;100040.63;10205611;29;20043;-86
2023/10/27 08:27:07;;;;;;;3.47;1.75;;;;;;;-1.43;68.80;100044.34;10226282;29;20117;-85
2023/10/27 08:32:11;;;;;;;5.93;2.58;;;;;;;-1.65;69.32;100033.09;10220092;29;20050;-85
2023/10/27 08:37:16;;;;;;;5.15;2.00;;;;;;;-1.61;69.42;100028.94;10218831;29;20040;-86
2023/10/27 08:42:19;;;;;;;3.45;2.10;;;;;;;-1.15;68.60;100025.91;10202724;29;20044;-86
2023/10/27 08:47:22;;;;;;;6.15;2.10;;;;;;;-1.13;68.50;100014.94;10217816;29;20056;-86
2023/10/27 08:52:24;;;;;;;5.05;2.30;;;;;;;-1.52;69.91;100017.72;10225383;29;20043;-86
2023/10/27 08:57:26;;;;;;;3.75;2.05;;;;;;;-1.56;69.51;100016.50;10235572;29;20426;-88
2023/10/27 09:02:32;;;;;;;3.13;1.80;;;;;;;-1.64;70.50;100008.69;10208927;29;20040;-83
2023/10/27 09:07:36;;;;;;;2.80;1.75;;;;;;;-1.56;70.15;100008.44;10243028;29;20043;-81
2023/10/27 09:12:39;;;;;;;3.38;1.70;;;;;;;-1.64;70.79;100005.97;10241051;29;20043;-83
2023/10/27 09:17:57;;;;;;;2.35;1.42;;;;;;;-1.79;71.43;100000.06;10248441;29;20035;-83
2023/10/27 09:23:04;;;;;;;6.40;2.10;;;;;;;-1.66;71.07;99996.50;10230629;29;20713;-85
2023/10/27 09:28:07;;;;;;;3.22;1.52;;;;;;;-1.44;71.04;99986.19;10248463;29;20088;-84
2023/10/27 09:33:18;;;;;;;1.45;1.05;;;;;;;-1.57;71.05;99982.53;10246818;29;20044;-84
2023/10/27 09:38:22;;;;;;;2.63;1.77;;;;;;;-1.52;71.10;99976.53;10233983;29;20055;-85
2023/10/27 09:43:24;;;;;;;5.72;2.15;;;;;;;-1.49;70.82;99973.41;10201955;29;20066;-83
2023/10/27 09:48:29;;;;;;;3.25;1.90;;;;;;;-1.61;71.43;99965.19;10247543;29;20074;-85
2023/10/27 09:53:32;;;;;;;4.85;2.00;;;;;;;-1.52;71.24;99968.47;10177008;29;20060;-84
2023/10/27 09:58:35;;;;;;;2.63;1.33;;;;;;;-1.49;71.33;99957.25;10228856;29;20426;-84
2023/10/27 10:03:43;;;;;;;3.45;2.08;;;;;;;-1.37;71.28;99963.56;10240661;29;20038;-83
2023/10/27 10:09:04;;;;;;;;;;;;;;;-1.56;71.85;99961.88;10238650;29;20048;-82
2023/10/27 10:14:06;;;;;;;1.23;0.95;;;;;;;-1.54;72.02;99960.59;10212450;29;19923;-82
2023/10/27 10:19:09;;;;;;;2.67;1.40;;;;;;;-1.41;71.92;99940.81;10232525;29;20039;-84
2023/10/27 10:24:11;;;;;;;3.20;1.70;;;;;;;-1.49;71.90;99935.72;10219714;29;20038;-82
2023/10/27 10:29:27;;;;;;;1.45;1.33;;;;;;;-1.45;72.25;99928.03;10242675;29;20046;-82
2023/10/27 10:34:31;;;;;;;1.48;0.90;;;;;;;-1.45;71.24;99923.47;10228353;29;20080;-82
2023/10/27 10:40:11;;;;;;;1.75;1.35;;;;;;;-1.35;71.22;99925.69;10245220;29;20048;-82
2023/10/27 10:45:14;;;;;;;3.10;1.52;;;;;;;-1.27;71.39;99920.81;10228024;29;20048;-82
2023/10/27 10:50:26;;;;;;;2.78;1.77;;;;;;;-1.24;71.66;99920.38;10244980;29;20040;-82
2023/10/27 10:55:29;;;;;;;4.30;0.95;;;;;;;-1.26;70.96;99906.31;10227396;29;20059;-82
2023/10/27 11:00:35;;;;;;;1.77;1.00;;;;;;;-1.12;71.27;99906.19;10244592;29;20047;-82
2023/10/27 11:05:37;;;;;;;3.40;2.10;;;;;;;-1.03;70.68;99908.38;10219772;29;20050;-82
2023/10/27 11:10:40;;;;;;;3.47;1.50;;;;;;;-1.04;70.61;99905.88;10243627;29;20043;-82
2023/10/27 11:15:48;;;;;;;3.53;1.88;;;;;;;-1.03;69.86;99912.94;10226202;29;20048;-82
2023/10/27 11:20:51;;;;;;;;;;;;;;;-1.15;70.31;99915.53;10226078;29;20532;-82
2023/10/27 11:26:04;;;;;;;3.13;1.35;;;;;;;-1.16;70.41;99897.75;10226306;29;19922;-82
2023/10/27 11:31:12;;;;;;;1.98;1.75;;;;;;;-1.05;70.24;99905.06;10209680;29;20043;-82
2023/10/27 11:36:15;;;;;;;2.40;1.27;;;;;;;-0.92;69.52;99904.09;10243518;29;20128;-82
2023/10/27 11:41:18;;;;;;;4.53;1.92;;;;;;;-0.80;69.28;99934.63;10207057;29;20040;-81
2023/10/27 11:46:21;;;;;;;3.55;1.17;;;;;;;-0.80;69.22;99907.72;10244559;29;20047;-82
2023/10/27 11:51:23;;;;;;;3.05;1.60;;;;;;;-0.78;69.54;99904.78;10225178;29;20059;-82
2023/10/27 11:56:26;;;;;;;3.90;1.83;;;;;;;-0.73;69.09;99908.44;10263378;29;20712;-83
2023/10/27 12:01:28;;;;;;;2.67;1.40;;;;;;;-0.77;69.40;99899.16;10223925;29;20039;-82
2023/10/27 12:06:30;;;;;;;1.95;1.15;;;;;;;-0.98;69.98;99905.84;10240407;29;20039;-82
2023/10/27 12:11:34;;;;;;;3.50;1.50;;;;;;;-0.93;69.96;99897.91;10245078;29;20414;-83
2023/10/27 12:16:36;;;;;;;2.88;1.50;;;;;;;-1.01;69.96;99900.06;10201809;29;20046;-81
2023/10/27 12:21:41;;;;;;;3.42;1.67;;;;;;;-0.92;70.36;99888.78;10204297;29;20054;-82
2023/10/27 12:26:44;;;;;;;0.68;0.55;;;;;;;-0.86;70.00;99876.28;10219478;29;20043;-81
2023/10/27 12:31:46;;;;;;;2.05;1.58;;;;;;;-0.86;69.87;99881.69;10223134;29;20039;-82
2023/10/27 12:36:48;;;;;;;1.95;1.45;;;;;;;-0.88;69.83;99899.09;10248605;29;20055;-83
2023/10/27 12:41:51;;;;;;;2.78;1.17;;;;;;;-0.93;69.83;99875.53;10216526;29;20044;-82
2023/10/27 12:46:53;;;;;;;3.95;1.60;;;;;;;-0.96;70.65;99879.50;10201323;29;20052;-82
2023/10/27 12:52:01;;;;;;;2.78;1.67;;;;;;;-0.89;70.46;99884.78;10203105;29;20549;-82
2023/10/27 12:57:04;;;;;;;6.82;1.90;;;;;;;-0.92;70.35;99898.72;10215520;29;20051;-82
2023/10/27 13:02:06;;;;;;;2.35;1.80;;;;;;;-0.95;70.41;99901.88;10196948;29;20039;-82
2023/10/27 13:07:09;;;;;;;2.83;1.95;;;;;;;-1.00;71.00;99899.84;10211386;29;20038;-82
2023/10/27 13:12:12;;;;;;;3.25;1.90;;;;;;;-0.88;71.00;99893.69;10212725;29;20074;-82
2023/10/27 13:17:14;;;;;;;2.13;0.98;;;;;;;-0.83;71.05;99886.63;10232257;29;20054;-82
2023/10/27 13:22:16;;;;;;;3.60;2.28;;;;;;;-0.84;70.59;99878.75;10247808;29;20031;-82
2023/10/27 13:27:30;;;;;;;2.28;1.80;;;;;;;-0.87;70.62;99876.50;10249476;29;20073;-83
2023/10/27 13:32:36;;;;;;;2.90;1.97;;;;;;;-0.96;70.93;99903.75;10248810;29;20035;-82
2023/10/27 13:37:42;;;;;;;1.70;1.25;;;;;;;-0.90;71.10;99893.94;10247248;29;20143;-83
2023/10/27 13:42:46;;;;;;;1.65;0.93;;;;;;;-0.98;71.40;99886.97;10214895;29;20047;-82
2023/10/27 13:48:02;;;;;;;1.00;0.82;;;;;;;-0.96;71.38;99889.44;10226919;29;20047;-83
2023/10/27 13:53:14;;;;;;;3.83;1.70;;;;;;;-1.00;71.30;99889.09;10221052;29;20569;-82
2023/10/27 13:58:16;;;;;;;4.88;2.03;;;;;;;-1.02;70.97;99875.03;10247418;29;20040;-82
2023/10/27 14:03:19;;;;;;;1.95;1.02;;;;;;;-1.08;71.42;99881.28;10246920;29;20058;-83
2023/10/27 14:08:21;;;;;;;4.30;1.88;;;;;;;-1.05;71.58;99899.69;10246672;29;20039;-85
2023/10/27 14:13:24;;;;;;;4.20;1.70;;;;;;;-1.06;71.93;99881.88;10247461;29;20046;-82
2023/10/27 14:18:26;;;;;;;2.05;1.23;;;;;;;-1.07;72.08;99879.41;10243956;29;20055;-79
2023/10/27 14:23:28;;;;;;;2.85;1.60;;;;;;;-1.15;72.37;99872.47;10227748;29;20040;-80
2023/10/27 14:28:30;;;;;;;2.47;1.50;;;;;;;-1.07;72.27;99872.16;10242245;29;20043;-85
2023/10/27 14:33:36;;;;;;;4.10;2.03;;;;;;;-1.12;72.45;99871.19;10200550;29;20044;-81
2023/10/27 14:38:39;;;;;;;5.53;1.70;;;;;;;-1.08;72.49;99883.97;10242180;29;20044;-80
2023/10/27 14:43:41;;;;;;;7.03;1.90;;;;;;;-1.14;72.35;99876.81;10203297;29;20043;-82
2023/10/27 14:48:43;;;;;;;3.42;1.30;;;;;;;-1.16;72.27;99873.50;10212310;29;20039;-82
2023/10/27 14:53:46;;;;;;;4.22;2.10;;;;;;;-1.12;72.36;99873.88;10242869;29;20039;-81
2023/10/27 14:58:54;;;;;;;5.13;2.53;;;;;;;-1.10;72.55;99880.69;10220419;29;20059;-84
2023/10/27 15:04:01;;;;;;;4.30;2.35;;;;;;;-1.09;72.61;99879.63;10229652;29;20818;-82
2023/10/27 15:09:04;;;;;;;2.00;1.40;;;;;;;-1.10;72.38;99869.91;10196826;29;20134;-81
2023/10/27 15:14:09;;;;;;;2.13;1.55;;;;;;;-1.09;72.09;99871.56;10199147;29;20043;-82
2023/10/27 15:19:15;;;;;;;3.20;1.65;;;;;;;-1.06;71.91;99870.28;10223517;29;20054;-82
2023/10/27 15:24:18;;;;;;;3.63;2.20;;;;;;;-1.04;72.07;99858.28;10234755;29;20043;-83
2023/10/27 15:29:21;;;;;;;4.45;2.25;;;;;;;-1.05;71.89;99859.28;10224746;29;20042;-83
2023/10/27 15:34:23;;;;;;;2.72;1.95;;;;;;;-1.01;72.09;99848.91;10210085;29;20044;-83
2023/10/27 15:39:26;;;;;;;5.65;1.75;;;;;;;-1.04;72.50;99842.13;10174992;29;20054;-83
2023/10/27 15:44:28;;;;;;;3.60;2.53;;;;;;;-1.11;72.85;99857.50;10234887;29;20051;-82
2023/10/27 15:50:08;;;;;;;4.57;2.30;;;;;;;-1.11;73.06;99833.28;10223595;29;20070;-82
2023/10/27 15:55:21;;;;;;;3.47;2.00;;;;;;;-1.13;73.00;99839.94;10211644;29;20071;-85
2023/10/27 16:00:29;;;;;;;4.95;2.38;;;;;;;-1.15;72.67;99829.41;10226730;29;20086;-85
2023/10/27 16:05:35;;;;;;;4.13;2.50;;;;;;;-1.17;72.99;99828.81;10242694;29;20032;-83
2023/10/27 16:11:03;;;;;;;5.32;2.25;;;;;;;-1.13;72.37;99821.91;10179447;29;20047;-83
2023/10/27 16:16:08;;;;;;;2.75;1.65;;;;;;;-1.10;72.47;99817.94;10202626;29;20043;-84
2023/10/27 16:21:12;;;;;;;3.30;1.90;;;;;;;-1.08;71.93;99818.53;10229703;29;20058;-84
2023/10/27 16:26:16;;;;;;;1.48;0.95;;;;;;;-1.09;72.17;99815.03;10229816;29;20545;-84
2023/10/27 16:31:19;;;;;;;2.90;2.42;;;;;;;-1.11;72.41;99814.44;10260114;29;20035;-82
2023/10/27 16:36:21;;;;;;;4.45;2.58;;;;;;;-1.11;72.07;99817.13;10233962;29;20057;-83
2023/10/27 16:41:24;;;;;;;1.98;1.75;;;;;;;-1.13;72.35;99810.31;10250876;29;20074;-83
2023/10/27 16:46:29;;;;;;;4.15;2.35;;;;;;;-1.13;72.67;99800.38;10204202;29;20069;-84
2023/10/27 16:51:31;;;;;;;6.45;2.13;;;;;;;-1.17;72.95;99803.75;10247078;29;20069;-84
2023/10/27 16:56:33;;;;;;;7.45;2.90;;;;;;;-1.15;72.92;99810.56;10245776;29;20043;-84
2023/10/27 17:01:36;;;;;;;6.07;2.50;;;;;;;-1.13;73.76;99803.06;10234110;29;20254;-83
2023/10/27 17:06:39;;;;;;;5.70;2.70;;;;;;;-1.12;73.19;99796.63;10234275;29;20042;-83
2023/10/27 17:11:41;;;;;;;6.50;1.35;;;;;;;-1.17;73.63;99807.28;10227687;29;20051;-83
2023/10/27 17:16:43;;;;;;;3.03;2.10;;;;;;;-1.20;73.22;99796.97;10246580;29;20050;-84
2023/10/27 17:21:50;;;;;;;4.80;1.85;;;;;;;-1.19;74.18;99798.59;10230711;29;20043;-83
2023/10/27 17:26:53;;;;;;;6.43;2.60;;;;;;;-1.22;73.88;99781.00;10245698;29;20040;-84
2023/10/27 17:31:55;;;;;;;5.40;2.63;;;;;;;-1.19;74.32;99778.94;10241452;29;20055;-83
2023/10/27 17:37:00;;;;;;;4.15;1.65;;;;;;;-1.21;74.34;99787.25;10227697;29;20036;-84
2023/10/27 17:42:09;;;;;;;3.72;2.25;;;;;;;-1.24;74.30;99783.09;10211420;29;20027;-82
2023/10/27 17:47:14;;;;;;;1.73;1.33;;;;;;;-1.24;74.60;99784.97;10202373;29;20060;-87
2023/10/27 17:52:20;;;;;;;3.45;2.55;;;;;;;-1.25;74.52;99775.25;10169659;29;20495;-82
2023/10/27 17:57:22;;;;;;;5.00;2.65;;;;;;;-1.28;74.33;99781.91;10188162;29;20058;-84
2023/10/27 18:02:27;;;;;;;4.72;2.15;;;;;;;-1.26;74.63;99777.13;10202036;29;20047;-81
2023/10/27 18:07:29;;;;;;;3.17;2.20;;;;;;;-1.30;74.50;99770.56;10195674;29;20517;-81
2023/10/27 18:12:32;;;;;;;2.67;1.98;;;;;;;-1.32;75.13;99769.97;10199249;29;20040;-81
2023/10/27 18:17:34;;;;;;;3.97;2.60;;;;;;;-1.36;75.25;99763.41;10196155;29;20047;-82
2023/10/27 18:22:36;;;;;;;4.25;2.10;;;;;;;-1.35;75.11;99767.72;10200705;29;20047;-83
2023/10/27 18:27:38;;;;;;;3.83;2.45;;;;;;;-1.37;75.29;99769.81;10201886;29;20040;-87
2023/10/27 18:32:41;;;;;;;3.25;2.33;;;;;;;-1.37;75.24;99755.53;10187154;29;20130;-81
2023/10/27 18:37:43;;;;;;;4.70;2.35;;;;;;;-1.35;75.34;99761.53;10210159;29;20136;-83
2023/10/27 18:42:47;;;;;;;3.55;2.42;;;;;;;-1.35;75.47;99748.88;10184285;29;20051;-81
2023/10/27 18:47:52;;;;;;;4.30;1.95;;;;;;;-1.37;75.68;99763.63;10233509;29;20048;-83
2023/10/27 18:52:56;;;;;;;3.00;1.30;;;;;;;-1.36;75.40;99752.63;10226018;29;20046;-83
2023/10/27 18:58:00;;;;;;;2.80;1.73;;;;;;;-1.37;75.45;99758.25;10227279;29;20039;-85
2023/10/27 19:03:03;;;;;;;1.02;0.93;;;;;;;-1.43;75.11;99759.13;10228207;29;20403;-84
2023/10/27 19:08:07;;;;;;;2.35;1.40;;;;;;;-1.40;75.56;99755.97;10223794;29;20036;-84
2023/10/27 19:13:09;;;;;;;3.05;1.90;;;;;;;-1.32;75.82;99753.81;10244037;29;20044;-85
2023/10/27 19:18:11;;;;;;;1.38;1.00;;;;;;;-1.42;76.42;99742.75;10226281;29;20050;-85
2023/10/27 19:23:14;;;;;;;4.20;2.47;;;;;;;-1.43;76.77;99751.03;10224036;29;20040;-83
2023/10/27 19:28:16;;;;;;;1.73;1.42;;;;;;;-1.41;76.58;99759.72;10239493;29;20050;-85
2023/10/27 19:33:19;;;;;;;3.97;2.30;;;;;;;-1.47;76.79;99734.53;10239927;29;20039;-85
2023/10/27 19:38:21;;;;;;;1.20;1.10;;;;;;;-1.59;76.79;99734.44;10220280;29;20059;-85
2023/10/27 19:43:29;;;;;;;2.55;1.85;;;;;;;-1.54;77.01;99717.66;10222397;29;20043;-84
2023/10/27 19:48:33;;;;;;;3.50;2.55;;;;;;;-1.59;77.23;99720.19;10229241;29;20052;-84
2023/10/27 19:53:36;;;;;;;3.25;2.55;;;;;;;-1.52;77.30;99729.00;10205875;29;20051;-85
2023/10/27 19:58:41;;;;;;;6.00;2.00;;;;;;;-1.57;77.42;99718.09;10210618;29;20043;-83
2023/10/27 20:03:44;;;;;;;3.35;1.77;;;;;;;-1.56;77.50;99717.06;10203896;29;20050;-91
2023/10/27 20:08:47;;;;;;;3.72;1.80;;;;;;;-1.57;77.55;99724.28;10206253;29;20039;-85
2023/10/27 20:13:50;;;;;;;2.90;1.80;;;;;;;-1.50;77.52;99721.53;10217354;29;20525;-86
2023/10/27 20:18:53;;;;;;;5.78;1.65;;;;;;;-1.56;77.67;99714.38;10241963;29;20487;-85
2023/10/27 20:23:55;;;;;;;3.53;2.20;;;;;;;-1.51;77.87;99727.97;10244491;29;20543;-87
2023/10/27 20:29:00;;;;;;;4.25;2.55;;;;;;;-1.60;78.28;99727.44;10223426;29;20043;-88
2023/10/27 20:34:03;;;;;;;1.75;1.33;;;;;;;-1.60;78.05;99719.34;10190636;29;20040;-87
2023/10/27 20:39:05;;;;;;;2.33;1.65;;;;;;;-1.55;78.41;99716.03;10223368;29;20052;-87
2023/10/27 20:44:08;;;;;;;3.63;2.47;;;;;;;-1.55;78.61;99714.16;10205386;29;20043;-86
2023/10/27 20:49:10;;;;;;;1.25;0.85;;;;;;;-1.58;78.40;99711.06;10206770;29;20051;-88
2023/10/27 20:54:12;;;;;;;4.60;1.92;;;;;;;-1.58;78.89;99711.88;10204115;29;20043;-86
2023/10/27 20:59:18;;;;;;;4.43;2.80;;;;;;;-1.61;78.83;99709.66;10244367;29;20426;-89
2023/10/27 21:04:21;;;;;;;3.75;2.15;;;;;;;-1.58;78.68;99709.19;10214334;29;20040;-85
2023/10/27 21:09:27;;;;;;;3.10;2.08;;;;;;;-1.56;79.09;99701.75;10251166;29;20039;-82
2023/10/27 21:14:29;;;;;;;3.45;2.60;;;;;;;-1.54;78.92;99706.91;10245518;29;20083;-81
2023/10/27 21:19:31;;;;;;;2.72;1.90;;;;;;;-1.58;79.12;99694.91;10232300;29;20063;-81
2023/10/27 21:24:34;;;;;;;4.70;2.30;;;;;;;-1.58;78.98;99690.38;10227973;29;20046;-81
2023/10/27 21:29:36;;;;;;;4.07;2.15;;;;;;;-1.52;78.80;99700.25;10264341;29;20039;-80
2023/10/27 21:34:38;;;;;;;4.97;3.13;;;;;;;-1.44;79.07;99700.97;10248978;29;20506;-80
2023/10/27 21:39:46;;;;;;;3.35;2.05;;;;;;;-1.48;79.06;99706.00;10232683;29;20043;-80
2023/10/27 21:44:48;;;;;;;7.50;2.65;;;;;;;-1.54;79.13;99696.97;10247998;29;20052;-80
2023/10/27 21:49:51;;;;;;;6.47;3.10;;;;;;;-1.58;79.47;99690.38;10202372;29;20043;-81
2023/10/27 21:54:53;;;;;;;4.55;2.63;;;;;;;-1.58;80.14;99687.69;10233793;29;20450;-81
2023/10/27 21:59:56;;;;;;;4.90;2.80;;;;;;;-1.60;79.98;99688.94;10233443;29;20425;-80
2023/10/27 22:05:01;;;;;;;6.05;2.80;;;;;;;-1.58;80.07;99692.22;10232607;29;20046;-89
2023/10/27 22:10:05;;;;;;;4.57;3.38;;;;;;;-1.59;80.04;99669.91;10223307;29;20490;-82
2023/10/27 22:15:08;;;;;;;4.57;2.83;;;;;;;-1.64;80.19;99667.06;10242523;29;20133;-83
2023/10/27 22:20:12;;;;;;;5.72;3.90;;;;;;;-1.70;80.70;99661.78;10227968;29;20399;-85
2023/10/27 22:25:18;;;;;;;4.15;2.80;;;;;;;-1.74;81.12;99669.44;10242795;29;20514;-86
2023/10/27 22:30:21;;;;;;;10.35;4.50;;;;;;;-1.65;80.84;99672.69;10243636;29;20082;-84
2023/10/27 22:35:25;;;;;;;6.97;4.30;;;;;;;-1.72;81.12;99671.94;10243613;29;20513;-86
2023/10/27 22:40:27;;;;;;;6.25;3.55;;;;;;;-1.77;81.69;99659.16;10228117;29;20051;-85
2023/10/27 22:45:30;;;;;;;4.30;2.58;;;;;;;-1.79;81.96;99658.56;10223179;29;20048;-84
2023/10/27 22:50:33;;;;;;;6.90;3.55;;;;;;;-1.85;81.78;99656.78;10238418;29;20039;-85
2023/10/27 22:55:54;;;;;;;5.43;3.10;;;;;;;-1.89;82.67;99652.91;10216895;29;20051;-84
2023/10/27 23:01:00;;;;;;;6.85;3.42;;;;;;;-1.94;83.28;99650.03;10237649;29;20580;-84
2023/10/27 23:06:10;;;;;;;7.80;3.83;;;;;;;-2.00;83.43;99640.19;10227979;29;20599;-85
2023/10/27 23:11:13;;;;;;;6.47;4.45;;;;;;;-2.00;84.12;99648.25;10227818;29;20043;-84
2023/10/27 23:16:17;;;;;;;7.43;4.30;;;;;;;-2.03;84.49;99649.53;10223585;29;20051;-84
2023/10/27 23:21:19;;;;;;;5.47;3.13;;;;;;;-2.04;84.26;99653.25;10243642;29;20520;-84
2023/10/27 23:26:21;;;;;;;6.07;3.80;;;;;;;-2.03;85.20;99651.41;10223294;29;20054;-84